sensor_id;sensor_type;location;lat;lon;timestamp;P1;durP1;ratioP1;P2;durP2;ratioP2
28836;SDS011;50669;50.982;11.022;2022-09-09T00:01:36;5.88;;;1.50;;
28836;SDS011;50669;50.982;11.022;2022-09-09T00:04:05;2.97;;;1.20;;
28836;SDS011;50669;50.982;11.022;2022-09-09T00:06:43;2.80;;;1.13;;
28836;SDS011;50669;50.982;11.022;2022-09-09T00:09:17;4.07;;;1.10;;
28836;SDS011;50669;50.982;11.022;2022-09-09T00:12:04;2.60;;;1.33;;
28836;SDS011;50669;50.982;11.022;2022-09-09T00:17:35;2.25;;;1.25;;
28836;SDS011;50669;50.982;11.022;2022-09-09T00:20:16;2.60;;;1.15;;
28836;SDS011;50669;50.982;11.022;2022-09-09T00:23:09;6.28;;;1.27;;
28836;SDS011;50669;50.982;11.022;2022-09-09T00:28:28;5.28;;;1.52;;
28836;SDS011;50669;50.982;11.022;2022-09-09T00:31:07;2.47;;;1.50;;
28836;SDS011;50669;50.982;11.022;2022-09-09T00:33:38;3.13;;;1.38;;
28836;SDS011;50669;50.982;11.022;2022-09-09T00:36:05;4.72;;;1.50;;
28836;SDS011;50669;50.982;11.022;2022-09-09T00:38:42;3.90;;;1.45;;
28836;SDS011;50669;50.982;11.022;2022-09-09T00:44:32;2.00;;;1.42;;
28836;SDS011;50669;50.982;11.022;2022-09-09T00:49:45;5.18;;;1.65;;
28836;SDS011;50669;50.982;11.022;2022-09-09T00:52:29;2.27;;;1.10;;
28836;SDS011;50669;50.982;11.022;2022-09-09T00:55:33;3.80;;;1.30;;
28836;SDS011;50669;50.982;11.022;2022-09-09T00:58:13;3.88;;;1.40;;
28836;SDS011;50669;50.982;11.022;2022-09-09T01:00:43;2.83;;;1.55;;
28836;SDS011;50669;50.982;11.022;2022-09-09T01:03:21;10.40;;;1.70;;
28836;SDS011;50669;50.982;11.022;2022-09-09T01:06:11;2.35;;;1.10;;
28836;SDS011;50669;50.982;11.022;2022-09-09T01:11:47;2.95;;;1.13;;
28836;SDS011;50669;50.982;11.022;2022-09-09T01:17:25;2.60;;;1.20;;
28836;SDS011;50669;50.982;11.022;2022-09-09T01:20:05;3.15;;;1.25;;
28836;SDS011;50669;50.982;11.022;2022-09-09T01:28:43;2.95;;;1.20;;
28836;SDS011;50669;50.982;11.022;2022-09-09T01:31:17;3.20;;;1.48;;
28836;SDS011;50669;50.982;11.022;2022-09-09T01:33:50;2.97;;;1.63;;
28836;SDS011;50669;50.982;11.022;2022-09-09T01:39:16;4.43;;;1.83;;
28836;SDS011;50669;50.982;11.022;2022-09-09T01:41:44;3.03;;;1.48;;
28836;SDS011;50669;50.982;11.022;2022-09-09T01:44:10;5.25;;;1.38;;
28836;SDS011;50669;50.982;11.022;2022-09-09T01:46:37;3.63;;;1.50;;
28836;SDS011;50669;50.982;11.022;2022-09-09T01:49:03;4.07;;;1.45;;
28836;SDS011;50669;50.982;11.022;2022-09-09T01:51:32;4.88;;;1.50;;
28836;SDS011;50669;50.982;11.022;2022-09-09T01:54:02;3.75;;;1.27;;
28836;SDS011;50669;50.982;11.022;2022-09-09T02:02:13;1.55;;;1.15;;
28836;SDS011;50669;50.982;11.022;2022-09-09T02:07:39;5.55;;;1.70;;
28836;SDS011;50669;50.982;11.022;2022-09-09T02:12:55;3.88;;;1.20;;
28836;SDS011;50669;50.982;11.022;2022-09-09T02:15:34;2.22;;;1.27;;
28836;SDS011;50669;50.982;11.022;2022-09-09T02:18:26;2.38;;;1.25;;
28836;SDS011;50669;50.982;11.022;2022-09-09T02:20:56;2.25;;;1.30;;
28836;SDS011;50669;50.982;11.022;2022-09-09T02:23:23;3.47;;;1.50;;
28836;SDS011;50669;50.982;11.022;2022-09-09T02:25:49;3.75;;;1.08;;
28836;SDS011;50669;50.982;11.022;2022-09-09T02:28:18;3.95;;;1.05;;
28836;SDS011;50669;50.982;11.022;2022-09-09T02:30:46;2.95;;;1.00;;
28836;SDS011;50669;50.982;11.022;2022-09-09T02:33:21;3.92;;;1.00;;
28836;SDS011;50669;50.982;11.022;2022-09-09T02:35:51;2.05;;;0.95;;
28836;SDS011;50669;50.982;11.022;2022-09-09T02:38:26;3.42;;;1.25;;
28836;SDS011;50669;50.982;11.022;2022-09-09T02:40:59;4.28;;;1.10;;
28836;SDS011;50669;50.982;11.022;2022-09-09T02:43:30;1.20;;;0.80;;
28836;SDS011;50669;50.982;11.022;2022-09-09T02:46:00;7.10;;;1.35;;
28836;SDS011;50669;50.982;11.022;2022-09-09T02:49:07;2.95;;;0.95;;
28836;SDS011;50669;50.982;11.022;2022-09-09T02:54:23;2.63;;;1.00;;
28836;SDS011;50669;50.982;11.022;2022-09-09T02:56:55;2.85;;;1.08;;
28836;SDS011;50669;50.982;11.022;2022-09-09T02:59:36;1.30;;;0.80;;
28836;SDS011;50669;50.982;11.022;2022-09-09T03:02:02;4.53;;;1.27;;
28836;SDS011;50669;50.982;11.022;2022-09-09T03:04:28;2.90;;;0.85;;
28836;SDS011;50669;50.982;11.022;2022-09-09T03:06:55;1.95;;;1.05;;
28836;SDS011;50669;50.982;11.022;2022-09-09T03:09:21;2.72;;;1.25;;
28836;SDS011;50669;50.982;11.022;2022-09-09T03:11:49;3.33;;;1.10;;
28836;SDS011;50669;50.982;11.022;2022-09-09T03:14:17;2.78;;;1.00;;
28836;SDS011;50669;50.982;11.022;2022-09-09T03:16:46;2.53;;;1.02;;
28836;SDS011;50669;50.982;11.022;2022-09-09T03:19:12;3.50;;;1.02;;
28836;SDS011;50669;50.982;11.022;2022-09-09T03:21:39;2.13;;;0.85;;
28836;SDS011;50669;50.982;11.022;2022-09-09T03:24:05;3.10;;;1.10;;
28836;SDS011;50669;50.982;11.022;2022-09-09T03:26:31;5.15;;;1.20;;
28836;SDS011;50669;50.982;11.022;2022-09-09T03:28:59;2.15;;;0.80;;
28836;SDS011;50669;50.982;11.022;2022-09-09T03:31:25;2.78;;;1.00;;
28836;SDS011;50669;50.982;11.022;2022-09-09T03:33:55;3.50;;;1.15;;
28836;SDS011;50669;50.982;11.022;2022-09-09T03:36:25;2.45;;;0.80;;
28836;SDS011;50669;50.982;11.022;2022-09-09T03:38:57;3.40;;;1.20;;
28836;SDS011;50669;50.982;11.022;2022-09-09T03:41:23;4.82;;;0.95;;
28836;SDS011;50669;50.982;11.022;2022-09-09T03:43:54;4.22;;;1.10;;
28836;SDS011;50669;50.982;11.022;2022-09-09T03:46:21;5.20;;;1.50;;
28836;SDS011;50669;50.982;11.022;2022-09-09T03:48:50;3.88;;;1.10;;
28836;SDS011;50669;50.982;11.022;2022-09-09T03:51:17;2.88;;;1.10;;
28836;SDS011;50669;50.982;11.022;2022-09-09T03:53:43;2.45;;;0.80;;
28836;SDS011;50669;50.982;11.022;2022-09-09T03:56:09;3.00;;;1.05;;
28836;SDS011;50669;50.982;11.022;2022-09-09T03:58:37;5.30;;;1.25;;
28836;SDS011;50669;50.982;11.022;2022-09-09T04:01:07;2.75;;;1.20;;
28836;SDS011;50669;50.982;11.022;2022-09-09T04:03:35;2.92;;;1.10;;
28836;SDS011;50669;50.982;11.022;2022-09-09T04:06:02;2.47;;;1.13;;
28836;SDS011;50669;50.982;11.022;2022-09-09T04:08:29;3.10;;;1.98;;
28836;SDS011;50669;50.982;11.022;2022-09-09T04:10:57;2.45;;;1.10;;
28836;SDS011;50669;50.982;11.022;2022-09-09T04:13:26;6.13;;;1.42;;
28836;SDS011;50669;50.982;11.022;2022-09-09T04:15:56;2.03;;;0.70;;
28836;SDS011;50669;50.982;11.022;2022-09-09T04:18:23;4.95;;;1.65;;
28836;SDS011;50669;50.982;11.022;2022-09-09T04:20:50;3.72;;;1.13;;
28836;SDS011;50669;50.982;11.022;2022-09-09T04:23:16;4.43;;;1.25;;
28836;SDS011;50669;50.982;11.022;2022-09-09T04:25:53;2.00;;;0.80;;
28836;SDS011;50669;50.982;11.022;2022-09-09T04:28:22;2.05;;;1.00;;
28836;SDS011;50669;50.982;11.022;2022-09-09T04:30:49;1.17;;;0.70;;
28836;SDS011;50669;50.982;11.022;2022-09-09T04:33:15;5.28;;;1.65;;
28836;SDS011;50669;50.982;11.022;2022-09-09T04:35:45;3.83;;;1.35;;
28836;SDS011;50669;50.982;11.022;2022-09-09T04:38:16;7.75;;;1.77;;
28836;SDS011;50669;50.982;11.022;2022-09-09T04:40:48;6.90;;;3.08;;
28836;SDS011;50669;50.982;11.022;2022-09-09T04:43:17;5.47;;;2.03;;
28836;SDS011;50669;50.982;11.022;2022-09-09T04:45:44;4.28;;;1.73;;
28836;SDS011;50669;50.982;11.022;2022-09-09T04:48:12;6.47;;;1.67;;
28836;SDS011;50669;50.982;11.022;2022-09-09T04:50:38;8.07;;;2.00;;
28836;SDS011;50669;50.982;11.022;2022-09-09T04:53:05;2.55;;;1.10;;
28836;SDS011;50669;50.982;11.022;2022-09-09T04:55:33;4.47;;;1.52;;
28836;SDS011;50669;50.982;11.022;2022-09-09T04:58:07;2.90;;;1.20;;
28836;SDS011;50669;50.982;11.022;2022-09-09T05:00:37;4.05;;;1.27;;
28836;SDS011;50669;50.982;11.022;2022-09-09T05:03:05;9.30;;;1.30;;
28836;SDS011;50669;50.982;11.022;2022-09-09T05:05:34;4.28;;;1.55;;
28836;SDS011;50669;50.982;11.022;2022-09-09T05:08:03;5.55;;;1.52;;
28836;SDS011;50669;50.982;11.022;2022-09-09T05:10:33;2.55;;;1.25;;
28836;SDS011;50669;50.982;11.022;2022-09-09T05:12:59;9.68;;;3.33;;
28836;SDS011;50669;50.982;11.022;2022-09-09T05:15:27;7.10;;;1.85;;
28836;SDS011;50669;50.982;11.022;2022-09-09T05:17:56;6.88;;;1.83;;
28836;SDS011;50669;50.982;11.022;2022-09-09T05:20:23;4.32;;;1.40;;
28836;SDS011;50669;50.982;11.022;2022-09-09T05:22:52;3.45;;;1.20;;
28836;SDS011;50669;50.982;11.022;2022-09-09T05:25:23;4.05;;;1.73;;
28836;SDS011;50669;50.982;11.022;2022-09-09T05:27:54;5.93;;;1.60;;
28836;SDS011;50669;50.982;11.022;2022-09-09T05:30:20;5.85;;;1.65;;
28836;SDS011;50669;50.982;11.022;2022-09-09T05:32:48;3.95;;;1.60;;
28836;SDS011;50669;50.982;11.022;2022-09-09T05:35:14;2.72;;;1.20;;
28836;SDS011;50669;50.982;11.022;2022-09-09T05:37:39;7.03;;;1.40;;
28836;SDS011;50669;50.982;11.022;2022-09-09T05:40:07;3.13;;;1.08;;
28836;SDS011;50669;50.982;11.022;2022-09-09T05:42:35;5.75;;;1.33;;
28836;SDS011;50669;50.982;11.022;2022-09-09T05:45:07;4.68;;;1.08;;
28836;SDS011;50669;50.982;11.022;2022-09-09T05:47:38;4.40;;;1.10;;
28836;SDS011;50669;50.982;11.022;2022-09-09T05:50:03;5.18;;;1.20;;
28836;SDS011;50669;50.982;11.022;2022-09-09T05:52:30;4.82;;;1.42;;
28836;SDS011;50669;50.982;11.022;2022-09-09T05:54:58;7.88;;;1.42;;
28836;SDS011;50669;50.982;11.022;2022-09-09T05:57:27;5.03;;;1.42;;
28836;SDS011;50669;50.982;11.022;2022-09-09T05:59:55;3.75;;;1.40;;
28836;SDS011;50669;50.982;11.022;2022-09-09T06:02:20;5.38;;;1.50;;
28836;SDS011;50669;50.982;11.022;2022-09-09T06:04:46;4.22;;;0.90;;
28836;SDS011;50669;50.982;11.022;2022-09-09T06:07:14;4.45;;;1.23;;
28836;SDS011;50669;50.982;11.022;2022-09-09T06:09:40;2.85;;;0.88;;
28836;SDS011;50669;50.982;11.022;2022-09-09T06:12:05;4.93;;;1.40;;
28836;SDS011;50669;50.982;11.022;2022-09-09T06:14:31;3.95;;;1.30;;
28836;SDS011;50669;50.982;11.022;2022-09-09T06:16:57;5.28;;;1.52;;
28836;SDS011;50669;50.982;11.022;2022-09-09T06:19:22;3.40;;;1.17;;
28836;SDS011;50669;50.982;11.022;2022-09-09T06:21:53;3.42;;;1.55;;
28836;SDS011;50669;50.982;11.022;2022-09-09T06:24:19;2.38;;;1.20;;
28836;SDS011;50669;50.982;11.022;2022-09-09T06:26:45;2.92;;;1.10;;
28836;SDS011;50669;50.982;11.022;2022-09-09T06:29:11;3.03;;;1.08;;
28836;SDS011;50669;50.982;11.022;2022-09-09T06:31:36;6.07;;;1.10;;
28836;SDS011;50669;50.982;11.022;2022-09-09T06:34:06;3.33;;;1.00;;
28836;SDS011;50669;50.982;11.022;2022-09-09T06:36:34;5.43;;;1.20;;
28836;SDS011;50669;50.982;11.022;2022-09-09T06:39:02;3.55;;;1.25;;
28836;SDS011;50669;50.982;11.022;2022-09-09T06:41:29;5.22;;;1.15;;
28836;SDS011;50669;50.982;11.022;2022-09-09T06:44:00;6.18;;;1.38;;
28836;SDS011;50669;50.982;11.022;2022-09-09T06:46:27;2.67;;;1.20;;
28836;SDS011;50669;50.982;11.022;2022-09-09T06:48:55;3.75;;;1.13;;
28836;SDS011;50669;50.982;11.022;2022-09-09T06:51:23;4.88;;;1.50;;
28836;SDS011;50669;50.982;11.022;2022-09-09T06:53:53;4.50;;;1.10;;
28836;SDS011;50669;50.982;11.022;2022-09-09T06:56:39;3.30;;;1.20;;
28836;SDS011;50669;50.982;11.022;2022-09-09T06:59:09;4.32;;;1.27;;
28836;SDS011;50669;50.982;11.022;2022-09-09T07:01:39;7.38;;;1.20;;
28836;SDS011;50669;50.982;11.022;2022-09-09T07:04:09;5.57;;;0.82;;
28836;SDS011;50669;50.982;11.022;2022-09-09T07:06:42;3.20;;;1.40;;
28836;SDS011;50669;50.982;11.022;2022-09-09T07:11:39;6.60;;;1.10;;
28836;SDS011;50669;50.982;11.022;2022-09-09T07:14:09;5.18;;;1.00;;
28836;SDS011;50669;50.982;11.022;2022-09-09T07:16:39;7.45;;;1.80;;
28836;SDS011;50669;50.982;11.022;2022-09-09T07:19:08;3.35;;;1.40;;
28836;SDS011;50669;50.982;11.022;2022-09-09T07:21:34;4.22;;;1.40;;
28836;SDS011;50669;50.982;11.022;2022-09-09T07:24:01;4.97;;;1.50;;
28836;SDS011;50669;50.982;11.022;2022-09-09T07:26:28;2.50;;;1.10;;
28836;SDS011;50669;50.982;11.022;2022-09-09T07:28:55;2.25;;;0.93;;
28836;SDS011;50669;50.982;11.022;2022-09-09T07:31:27;4.03;;;0.98;;
28836;SDS011;50669;50.982;11.022;2022-09-09T07:33:58;3.85;;;1.15;;
28836;SDS011;50669;50.982;11.022;2022-09-09T07:36:25;3.13;;;1.02;;
28836;SDS011;50669;50.982;11.022;2022-09-09T07:38:53;2.55;;;1.00;;
28836;SDS011;50669;50.982;11.022;2022-09-09T07:41:24;3.60;;;0.80;;
28836;SDS011;50669;50.982;11.022;2022-09-09T07:43:53;2.95;;;1.00;;
28836;SDS011;50669;50.982;11.022;2022-09-09T07:46:22;2.60;;;0.82;;
28836;SDS011;50669;50.982;11.022;2022-09-09T07:48:50;4.93;;;1.20;;
28836;SDS011;50669;50.982;11.022;2022-09-09T07:51:22;2.78;;;0.75;;
28836;SDS011;50669;50.982;11.022;2022-09-09T07:53:53;4.38;;;0.88;;
28836;SDS011;50669;50.982;11.022;2022-09-09T07:56:20;4.45;;;1.20;;
28836;SDS011;50669;50.982;11.022;2022-09-09T07:58:49;2.35;;;0.90;;
28836;SDS011;50669;50.982;11.022;2022-09-09T08:01:20;5.43;;;1.33;;
28836;SDS011;50669;50.982;11.022;2022-09-09T08:03:46;3.95;;;1.30;;
28836;SDS011;50669;50.982;11.022;2022-09-09T08:06:17;2.38;;;0.85;;
28836;SDS011;50669;50.982;11.022;2022-09-09T08:08:43;2.28;;;1.00;;
28836;SDS011;50669;50.982;11.022;2022-09-09T08:11:12;4.68;;;1.15;;
28836;SDS011;50669;50.982;11.022;2022-09-09T08:13:42;3.22;;;1.15;;
28836;SDS011;50669;50.982;11.022;2022-09-09T08:18:39;3.78;;;0.90;;
28836;SDS011;50669;50.982;11.022;2022-09-09T08:21:12;7.00;;;0.98;;
28836;SDS011;50669;50.982;11.022;2022-09-09T08:23:43;7.85;;;1.45;;
28836;SDS011;50669;50.982;11.022;2022-09-09T08:26:14;3.45;;;0.90;;
28836;SDS011;50669;50.982;11.022;2022-09-09T08:28:42;2.67;;;0.93;;
28836;SDS011;50669;50.982;11.022;2022-09-09T08:31:15;4.75;;;1.30;;
28836;SDS011;50669;50.982;11.022;2022-09-09T08:33:44;7.00;;;1.98;;
28836;SDS011;50669;50.982;11.022;2022-09-09T08:36:19;3.58;;;0.90;;
28836;SDS011;50669;50.982;11.022;2022-09-09T08:38:47;2.92;;;1.23;;
28836;SDS011;50669;50.982;11.022;2022-09-09T08:44:11;4.28;;;0.80;;
28836;SDS011;50669;50.982;11.022;2022-09-09T08:53:09;3.83;;;1.23;;
28836;SDS011;50669;50.982;11.022;2022-09-09T08:58:20;6.53;;;1.33;;
28836;SDS011;50669;50.982;11.022;2022-09-09T09:12:07;3.15;;;1.30;;
28836;SDS011;50669;50.982;11.022;2022-09-09T09:14:41;4.82;;;1.00;;
28836;SDS011;50669;50.982;11.022;2022-09-09T09:17:16;6.35;;;1.33;;
28836;SDS011;50669;50.982;11.022;2022-09-09T09:19:50;3.80;;;0.90;;
28836;SDS011;50669;50.982;11.022;2022-09-09T09:22:17;4.75;;;1.33;;
28836;SDS011;50669;50.982;11.022;2022-09-09T09:30:18;3.22;;;0.88;;
28836;SDS011;50669;50.982;11.022;2022-09-09T09:33:08;4.65;;;0.80;;
28836;SDS011;50669;50.982;11.022;2022-09-09T09:35:39;4.80;;;0.85;;
28836;SDS011;50669;50.982;11.022;2022-09-09T09:40:50;4.60;;;1.23;;
28836;SDS011;50669;50.982;11.022;2022-09-09T09:45:59;2.75;;;0.70;;
28836;SDS011;50669;50.982;11.022;2022-09-09T09:48:30;3.30;;;0.80;;
28836;SDS011;50669;50.982;11.022;2022-09-09T09:53:30;2.28;;;0.75;;
28836;SDS011;50669;50.982;11.022;2022-09-09T09:56:02;3.17;;;0.60;;
28836;SDS011;50669;50.982;11.022;2022-09-09T09:58:30;3.33;;;1.02;;
28836;SDS011;50669;50.982;11.022;2022-09-09T10:00:59;3.67;;;0.90;;
28836;SDS011;50669;50.982;11.022;2022-09-09T10:03:34;3.65;;;0.80;;
28836;SDS011;50669;50.982;11.022;2022-09-09T10:06:03;2.38;;;0.70;;
28836;SDS011;50669;50.982;11.022;2022-09-09T10:08:29;5.15;;;1.40;;
28836;SDS011;50669;50.982;11.022;2022-09-09T10:13:55;3.08;;;0.93;;
28836;SDS011;50669;50.982;11.022;2022-09-09T10:19:33;4.55;;;1.00;;
28836;SDS011;50669;50.982;11.022;2022-09-09T10:35:44;3.55;;;0.73;;
28836;SDS011;50669;50.982;11.022;2022-09-09T10:46:33;5.65;;;1.27;;
28836;SDS011;50669;50.982;11.022;2022-09-09T10:55:48;6.85;;;1.77;;
28836;SDS011;50669;50.982;11.022;2022-09-09T10:57:50;4.60;;;0.93;;
28836;SDS011;50669;50.982;11.022;2022-09-09T11:00:26;4.03;;;1.00;;
28836;SDS011;50669;50.982;11.022;2022-09-09T11:03:02;3.30;;;1.40;;
28836;SDS011;50669;50.982;11.022;2022-09-09T11:08:57;2.80;;;0.77;;
28836;SDS011;50669;50.982;11.022;2022-09-09T11:11:28;2.78;;;0.80;;
28836;SDS011;50669;50.982;11.022;2022-09-09T11:14:32;4.70;;;0.90;;
28836;SDS011;50669;50.982;11.022;2022-09-09T11:16:53;4.63;;;0.80;;
28836;SDS011;50669;50.982;11.022;2022-09-09T11:24:41;3.03;;;0.90;;
28836;SDS011;50669;50.982;11.022;2022-09-09T11:27:22;4.20;;;0.82;;
28836;SDS011;50669;50.982;11.022;2022-09-09T11:41:05;6.28;;;0.98;;
28836;SDS011;50669;50.982;11.022;2022-09-09T11:43:43;3.70;;;0.70;;
28836;SDS011;50669;50.982;11.022;2022-09-09T11:46:15;5.63;;;1.13;;
28836;SDS011;50669;50.982;11.022;2022-09-09T11:48:44;3.58;;;0.88;;
28836;SDS011;50669;50.982;11.022;2022-09-09T11:56:30;9.82;;;0.90;;
28836;SDS011;50669;50.982;11.022;2022-09-09T11:59:00;3.75;;;1.00;;
28836;SDS011;50669;50.982;11.022;2022-09-09T12:01:29;3.55;;;0.93;;
28836;SDS011;50669;50.982;11.022;2022-09-09T12:04:01;5.28;;;0.75;;
28836;SDS011;50669;50.982;11.022;2022-09-09T12:06:46;4.20;;;0.90;;
28836;SDS011;50669;50.982;11.022;2022-09-09T12:11:46;4.38;;;0.93;;
28836;SDS011;50669;50.982;11.022;2022-09-09T12:14:23;2.53;;;0.73;;
28836;SDS011;50669;50.982;11.022;2022-09-09T12:17:19;5.72;;;1.05;;
28836;SDS011;50669;50.982;11.022;2022-09-09T12:19:47;1.75;;;0.80;;
28836;SDS011;50669;50.982;11.022;2022-09-09T12:27:53;2.33;;;0.75;;
28836;SDS011;50669;50.982;11.022;2022-09-09T12:30:45;1.40;;;0.40;;
28836;SDS011;50669;50.982;11.022;2022-09-09T12:33:36;2.95;;;0.88;;
28836;SDS011;50669;50.982;11.022;2022-09-09T12:36:09;4.93;;;0.90;;
28836;SDS011;50669;50.982;11.022;2022-09-09T12:38:41;2.97;;;0.45;;
28836;SDS011;50669;50.982;11.022;2022-09-09T12:44:08;2.00;;;0.55;;
28836;SDS011;50669;50.982;11.022;2022-09-09T12:46:44;0.75;;;0.20;;
28836;SDS011;50669;50.982;11.022;2022-09-09T12:54:43;2.60;;;0.52;;
28836;SDS011;50669;50.982;11.022;2022-09-09T12:57:15;3.83;;;0.55;;
28836;SDS011;50669;50.982;11.022;2022-09-09T12:59:44;4.03;;;0.50;;
28836;SDS011;50669;50.982;11.022;2022-09-09T13:02:19;1.45;;;0.40;;
28836;SDS011;50669;50.982;11.022;2022-09-09T13:04:52;3.50;;;0.50;;
28836;SDS011;50669;50.982;11.022;2022-09-09T13:07:19;2.88;;;0.55;;
28836;SDS011;50669;50.982;11.022;2022-09-09T13:09:47;2.55;;;0.40;;
28836;SDS011;50669;50.982;11.022;2022-09-09T13:12:23;1.35;;;0.50;;
28836;SDS011;50669;50.982;11.022;2022-09-09T13:14:50;10.43;;;0.85;;
28836;SDS011;50669;50.982;11.022;2022-09-09T13:17:20;2.70;;;0.70;;
28836;SDS011;50669;50.982;11.022;2022-09-09T13:19:48;1.90;;;0.60;;
28836;SDS011;50669;50.982;11.022;2022-09-09T13:27:34;3.15;;;0.60;;
28836;SDS011;50669;50.982;11.022;2022-09-09T13:30:25;0.60;;;0.25;;
28836;SDS011;50669;50.982;11.022;2022-09-09T13:35:28;3.60;;;0.75;;
28836;SDS011;50669;50.982;11.022;2022-09-09T13:37:55;2.92;;;0.75;;
28836;SDS011;50669;50.982;11.022;2022-09-09T13:40:21;1.60;;;0.30;;
28836;SDS011;50669;50.982;11.022;2022-09-09T13:42:50;2.78;;;0.35;;
28836;SDS011;50669;50.982;11.022;2022-09-09T13:45:19;3.05;;;0.90;;
28836;SDS011;50669;50.982;11.022;2022-09-09T13:47:48;1.40;;;0.40;;
28836;SDS011;50669;50.982;11.022;2022-09-09T13:52:55;1.42;;;0.40;;
28836;SDS011;50669;50.982;11.022;2022-09-09T13:55:28;1.45;;;0.40;;
28836;SDS011;50669;50.982;11.022;2022-09-09T13:57:55;0.68;;;0.20;;
28836;SDS011;50669;50.982;11.022;2022-09-09T14:00:23;1.85;;;0.40;;
28836;SDS011;50669;50.982;11.022;2022-09-09T14:02:51;1.67;;;0.50;;
28836;SDS011;50669;50.982;11.022;2022-09-09T14:05:17;1.58;;;0.30;;
28836;SDS011;50669;50.982;11.022;2022-09-09T14:07:44;2.33;;;0.40;;
28836;SDS011;50669;50.982;11.022;2022-09-09T14:10:10;0.63;;;0.20;;
28836;SDS011;50669;50.982;11.022;2022-09-09T14:12:37;1.90;;;0.45;;
28836;SDS011;50669;50.982;11.022;2022-09-09T14:15:03;2.58;;;0.40;;
28836;SDS011;50669;50.982;11.022;2022-09-09T14:17:32;1.00;;;0.30;;
28836;SDS011;50669;50.982;11.022;2022-09-09T14:19:58;0.80;;;0.32;;
28836;SDS011;50669;50.982;11.022;2022-09-09T14:22:24;0.77;;;0.28;;
28836;SDS011;50669;50.982;11.022;2022-09-09T14:24:50;1.42;;;0.30;;
28836;SDS011;50669;50.982;11.022;2022-09-09T14:27:16;1.45;;;0.40;;
28836;SDS011;50669;50.982;11.022;2022-09-09T14:29:43;0.95;;;0.28;;
28836;SDS011;50669;50.982;11.022;2022-09-09T14:32:12;1.95;;;0.30;;
28836;SDS011;50669;50.982;11.022;2022-09-09T14:34:40;1.05;;;0.25;;
28836;SDS011;50669;50.982;11.022;2022-09-09T14:37:05;1.85;;;0.50;;
28836;SDS011;50669;50.982;11.022;2022-09-09T14:39:31;1.27;;;0.25;;
28836;SDS011;50669;50.982;11.022;2022-09-09T14:41:57;4.43;;;0.50;;
28836;SDS011;50669;50.982;11.022;2022-09-09T14:44:23;2.55;;;0.60;;
28836;SDS011;50669;50.982;11.022;2022-09-09T14:46:48;1.83;;;0.50;;
28836;SDS011;50669;50.982;11.022;2022-09-09T14:49:15;2.15;;;0.38;;
28836;SDS011;50669;50.982;11.022;2022-09-09T14:51:43;3.05;;;0.50;;
28836;SDS011;50669;50.982;11.022;2022-09-09T14:54:08;1.83;;;0.40;;
28836;SDS011;50669;50.982;11.022;2022-09-09T14:56:35;3.17;;;0.40;;
28836;SDS011;50669;50.982;11.022;2022-09-09T14:59:01;1.73;;;0.63;;
28836;SDS011;50669;50.982;11.022;2022-09-09T15:01:27;2.85;;;0.40;;
28836;SDS011;50669;50.982;11.022;2022-09-09T15:04:04;1.73;;;0.50;;
28836;SDS011;50669;50.982;11.022;2022-09-09T15:06:33;2.13;;;0.65;;
28836;SDS011;50669;50.982;11.022;2022-09-09T15:09:00;2.20;;;0.47;;
28836;SDS011;50669;50.982;11.022;2022-09-09T15:11:29;1.50;;;0.30;;
28836;SDS011;50669;50.982;11.022;2022-09-09T15:13:58;1.67;;;0.50;;
28836;SDS011;50669;50.982;11.022;2022-09-09T15:16:24;2.05;;;0.70;;
28836;SDS011;50669;50.982;11.022;2022-09-09T15:18:52;2.40;;;0.43;;
28836;SDS011;50669;50.982;11.022;2022-09-09T15:21:21;2.45;;;0.40;;
28836;SDS011;50669;50.982;11.022;2022-09-09T15:23:48;2.33;;;0.85;;
28836;SDS011;50669;50.982;11.022;2022-09-09T15:26:14;1.10;;;0.38;;
28836;SDS011;50669;50.982;11.022;2022-09-09T15:28:41;3.20;;;0.60;;
28836;SDS011;50669;50.982;11.022;2022-09-09T15:34:01;2.17;;;0.50;;
28836;SDS011;50669;50.982;11.022;2022-09-09T15:39:06;2.55;;;1.02;;
28836;SDS011;50669;50.982;11.022;2022-09-09T15:41:34;1.65;;;0.50;;
28836;SDS011;50669;50.982;11.022;2022-09-09T15:44:00;2.90;;;0.73;;
28836;SDS011;50669;50.982;11.022;2022-09-09T15:46:33;2.20;;;0.63;;
28836;SDS011;50669;50.982;11.022;2022-09-09T15:49:12;4.72;;;1.33;;
28836;SDS011;50669;50.982;11.022;2022-09-09T15:51:52;2.25;;;0.60;;
28836;SDS011;50669;50.982;11.022;2022-09-09T15:54:31;3.25;;;0.60;;
28836;SDS011;50669;50.982;11.022;2022-09-09T15:57:02;1.33;;;0.60;;
28836;SDS011;50669;50.982;11.022;2022-09-09T15:59:29;4.70;;;0.77;;
28836;SDS011;50669;50.982;11.022;2022-09-09T16:01:56;1.58;;;0.70;;
28836;SDS011;50669;50.982;11.022;2022-09-09T16:04:23;1.20;;;0.30;;
28836;SDS011;50669;50.982;11.022;2022-09-09T16:06:53;1.10;;;0.50;;
28836;SDS011;50669;50.982;11.022;2022-09-09T16:09:28;1.45;;;0.52;;
28836;SDS011;50669;50.982;11.022;2022-09-09T16:11:57;1.70;;;0.57;;
28836;SDS011;50669;50.982;11.022;2022-09-09T16:14:26;0.85;;;0.40;;
28836;SDS011;50669;50.982;11.022;2022-09-09T16:16:52;6.32;;;0.70;;
28836;SDS011;50669;50.982;11.022;2022-09-09T16:19:18;2.67;;;0.57;;
28836;SDS011;50669;50.982;11.022;2022-09-09T16:21:45;1.75;;;0.60;;
28836;SDS011;50669;50.982;11.022;2022-09-09T16:24:12;2.80;;;0.60;;
28836;SDS011;50669;50.982;11.022;2022-09-09T16:26:43;1.55;;;0.50;;
28836;SDS011;50669;50.982;11.022;2022-09-09T16:29:13;1.30;;;0.50;;
28836;SDS011;50669;50.982;11.022;2022-09-09T16:31:40;3.15;;;0.57;;
28836;SDS011;50669;50.982;11.022;2022-09-09T16:34:06;1.95;;;0.50;;
28836;SDS011;50669;50.982;11.022;2022-09-09T16:36:33;1.83;;;0.90;;
28836;SDS011;50669;50.982;11.022;2022-09-09T16:39:05;2.55;;;0.90;;
28836;SDS011;50669;50.982;11.022;2022-09-09T16:41:35;1.95;;;0.85;;
28836;SDS011;50669;50.982;11.022;2022-09-09T16:44:03;2.05;;;0.80;;
28836;SDS011;50669;50.982;11.022;2022-09-09T16:46:34;2.42;;;0.90;;
28836;SDS011;50669;50.982;11.022;2022-09-09T16:49:04;3.08;;;1.30;;
28836;SDS011;50669;50.982;11.022;2022-09-09T16:51:35;3.70;;;0.80;;
28836;SDS011;50669;50.982;11.022;2022-09-09T16:54:12;2.75;;;1.95;;
28836;SDS011;50669;50.982;11.022;2022-09-09T16:56:41;5.22;;;1.42;;
28836;SDS011;50669;50.982;11.022;2022-09-09T16:59:16;2.40;;;0.80;;
28836;SDS011;50669;50.982;11.022;2022-09-09T17:01:43;3.25;;;0.90;;
28836;SDS011;50669;50.982;11.022;2022-09-09T17:04:11;3.15;;;1.23;;
28836;SDS011;50669;50.982;11.022;2022-09-09T17:06:40;4.20;;;1.90;;
28836;SDS011;50669;50.982;11.022;2022-09-09T17:09:09;1.77;;;0.50;;
28836;SDS011;50669;50.982;11.022;2022-09-09T17:11:36;2.58;;;0.73;;
28836;SDS011;50669;50.982;11.022;2022-09-09T17:14:03;2.10;;;0.88;;
28836;SDS011;50669;50.982;11.022;2022-09-09T17:16:31;4.68;;;2.00;;
28836;SDS011;50669;50.982;11.022;2022-09-09T17:18:59;1.23;;;0.70;;
28836;SDS011;50669;50.982;11.022;2022-09-09T17:21:28;3.85;;;0.70;;
28836;SDS011;50669;50.982;11.022;2022-09-09T17:23:57;3.88;;;1.02;;
28836;SDS011;50669;50.982;11.022;2022-09-09T17:26:25;2.20;;;0.60;;
28836;SDS011;50669;50.982;11.022;2022-09-09T17:28:54;2.20;;;0.85;;
28836;SDS011;50669;50.982;11.022;2022-09-09T17:31:23;2.08;;;0.70;;
28836;SDS011;50669;50.982;11.022;2022-09-09T17:33:52;2.35;;;0.60;;
28836;SDS011;50669;50.982;11.022;2022-09-09T17:36:19;0.98;;;0.40;;
28836;SDS011;50669;50.982;11.022;2022-09-09T17:38:45;2.45;;;0.60;;
28836;SDS011;50669;50.982;11.022;2022-09-09T17:41:35;3.55;;;0.80;;
28836;SDS011;50669;50.982;11.022;2022-09-09T17:44:01;4.45;;;0.65;;
28836;SDS011;50669;50.982;11.022;2022-09-09T17:46:31;2.13;;;0.73;;